sensor_id;sensor_type;location;lat;lon;timestamp;P1;durP1;ratioP1;P2;durP2;ratioP2
21181;SDS011;10749;46.296;7.524;2022-07-11T00:02:01;1.75;;;1.35;;
21181;SDS011;10749;46.296;7.524;2022-07-11T00:04:27;1.35;;;1.17;;
21181;SDS011;10749;46.296;7.524;2022-07-11T00:06:53;2.03;;;1.30;;
21181;SDS011;10749;46.296;7.524;2022-07-11T00:09:18;3.80;;;1.63;;
21181;SDS011;10749;46.296;7.524;2022-07-11T00:11:43;2.67;;;1.48;;
21181;SDS011;10749;46.296;7.524;2022-07-11T00:14:09;1.70;;;1.40;;
21181;SDS011;10749;46.296;7.524;2022-07-11T00:16:34;3.15;;;1.50;;
21181;SDS011;10749;46.296;7.524;2022-07-11T00:18:59;3.80;;;1.50;;
21181;SDS011;10749;46.296;7.524;2022-07-11T00:21:25;3.97;;;1.70;;
21181;SDS011;10749;46.296;7.524;2022-07-11T00:23:50;2.58;;;1.27;;
21181;SDS011;10749;46.296;7.524;2022-07-11T00:26:15;2.20;;;1.52;;
21181;SDS011;10749;46.296;7.524;2022-07-11T00:28:40;5.47;;;1.88;;
21181;SDS011;10749;46.296;7.524;2022-07-11T00:31:06;1.70;;;1.20;;
21181;SDS011;10749;46.296;7.524;2022-07-11T00:33:33;2.63;;;1.70;;
21181;SDS011;10749;46.296;7.524;2022-07-11T00:35:58;3.30;;;1.50;;
21181;SDS011;10749;46.296;7.524;2022-07-11T00:38:24;2.75;;;1.58;;
21181;SDS011;10749;46.296;7.524;2022-07-11T00:40:49;1.92;;;1.52;;
21181;SDS011;10749;46.296;7.524;2022-07-11T00:43:14;1.63;;;1.27;;
21181;SDS011;10749;46.296;7.524;2022-07-11T00:45:44;2.38;;;1.48;;
21181;SDS011;10749;46.296;7.524;2022-07-11T00:48:09;3.20;;;1.42;;
21181;SDS011;10749;46.296;7.524;2022-07-11T00:50:34;2.55;;;1.50;;
21181;SDS011;10749;46.296;7.524;2022-07-11T00:53:00;3.30;;;1.58;;
21181;SDS011;10749;46.296;7.524;2022-07-11T00:55:26;2.00;;;1.38;;
21181;SDS011;10749;46.296;7.524;2022-07-11T00:57:52;4.40;;;1.40;;
21181;SDS011;10749;46.296;7.524;2022-07-11T01:00:18;1.50;;;1.13;;
21181;SDS011;10749;46.296;7.524;2022-07-11T01:02:44;1.83;;;1.60;;
21181;SDS011;10749;46.296;7.524;2022-07-11T01:05:09;2.38;;;1.55;;
21181;SDS011;10749;46.296;7.524;2022-07-11T01:07:34;2.75;;;1.20;;
21181;SDS011;10749;46.296;7.524;2022-07-11T01:10:00;1.70;;;1.60;;
21181;SDS011;10749;46.296;7.524;2022-07-11T01:12:25;1.73;;;1.27;;
21181;SDS011;10749;46.296;7.524;2022-07-11T01:14:52;1.77;;;1.30;;
21181;SDS011;10749;46.296;7.524;2022-07-11T01:17:18;2.28;;;1.50;;
21181;SDS011;10749;46.296;7.524;2022-07-11T01:19:44;2.03;;;1.55;;
21181;SDS011;10749;46.296;7.524;2022-07-11T01:22:09;3.75;;;1.30;;
21181;SDS011;10749;46.296;7.524;2022-07-11T01:24:36;2.47;;;1.60;;
21181;SDS011;10749;46.296;7.524;2022-07-11T01:27:01;3.30;;;1.45;;
21181;SDS011;10749;46.296;7.524;2022-07-11T01:29:27;3.45;;;1.80;;
21181;SDS011;10749;46.296;7.524;2022-07-11T01:31:52;2.10;;;1.45;;
21181;SDS011;10749;46.296;7.524;2022-07-11T01:34:17;3.20;;;1.67;;
21181;SDS011;10749;46.296;7.524;2022-07-11T01:36:43;1.92;;;1.60;;
21181;SDS011;10749;46.296;7.524;2022-07-11T01:39:08;2.70;;;1.75;;
21181;SDS011;10749;46.296;7.524;2022-07-11T01:41:33;4.70;;;1.88;;
21181;SDS011;10749;46.296;7.524;2022-07-11T01:43:58;3.35;;;1.73;;
21181;SDS011;10749;46.296;7.524;2022-07-11T01:46:24;1.83;;;1.70;;
21181;SDS011;10749;46.296;7.524;2022-07-11T01:48:49;2.25;;;1.60;;
21181;SDS011;10749;46.296;7.524;2022-07-11T01:51:15;3.22;;;1.70;;
21181;SDS011;10749;46.296;7.524;2022-07-11T01:53:40;3.75;;;1.85;;
21181;SDS011;10749;46.296;7.524;2022-07-11T01:56:05;4.25;;;1.50;;
21181;SDS011;10749;46.296;7.524;2022-07-11T01:58:31;4.53;;;1.70;;
21181;SDS011;10749;46.296;7.524;2022-07-11T02:00:57;2.97;;;1.60;;
21181;SDS011;10749;46.296;7.524;2022-07-11T02:03:23;1.92;;;1.33;;
21181;SDS011;10749;46.296;7.524;2022-07-11T02:05:49;2.53;;;1.60;;
21181;SDS011;10749;46.296;7.524;2022-07-11T02:08:14;3.03;;;1.50;;
21181;SDS011;10749;46.296;7.524;2022-07-11T02:10:44;1.65;;;1.50;;
21181;SDS011;10749;46.296;7.524;2022-07-11T02:13:11;4.40;;;1.60;;
21181;SDS011;10749;46.296;7.524;2022-07-11T02:15:38;3.03;;;1.48;;
21181;SDS011;10749;46.296;7.524;2022-07-11T02:18:04;3.13;;;1.60;;
21181;SDS011;10749;46.296;7.524;2022-07-11T02:20:30;2.50;;;1.60;;
21181;SDS011;10749;46.296;7.524;2022-07-11T02:22:55;3.17;;;1.50;;
21181;SDS011;10749;46.296;7.524;2022-07-11T02:25:21;3.33;;;1.65;;
21181;SDS011;10749;46.296;7.524;2022-07-11T02:27:47;1.70;;;1.20;;
21181;SDS011;10749;46.296;7.524;2022-07-11T02:30:13;2.00;;;1.45;;
21181;SDS011;10749;46.296;7.524;2022-07-11T02:32:39;2.38;;;1.40;;
21181;SDS011;10749;46.296;7.524;2022-07-11T02:35:04;1.90;;;1.50;;
21181;SDS011;10749;46.296;7.524;2022-07-11T02:37:30;2.05;;;1.50;;
21181;SDS011;10749;46.296;7.524;2022-07-11T02:39:56;2.58;;;1.58;;
21181;SDS011;10749;46.296;7.524;2022-07-11T02:42:21;3.15;;;1.98;;
21181;SDS011;10749;46.296;7.524;2022-07-11T02:44:47;3.65;;;1.60;;
21181;SDS011;10749;46.296;7.524;2022-07-11T02:47:12;5.25;;;1.75;;
21181;SDS011;10749;46.296;7.524;2022-07-11T02:49:39;2.30;;;1.70;;
21181;SDS011;10749;46.296;7.524;2022-07-11T02:52:05;3.25;;;1.50;;
21181;SDS011;10749;46.296;7.524;2022-07-11T02:54:30;2.10;;;1.90;;
21181;SDS011;10749;46.296;7.524;2022-07-11T02:56:56;2.95;;;1.80;;
21181;SDS011;10749;46.296;7.524;2022-07-11T02:59:21;2.65;;;1.58;;
21181;SDS011;10749;46.296;7.524;2022-07-11T03:01:47;4.28;;;1.63;;
21181;SDS011;10749;46.296;7.524;2022-07-11T03:04:13;3.75;;;1.52;;
21181;SDS011;10749;46.296;7.524;2022-07-11T03:06:38;2.45;;;1.60;;
21181;SDS011;10749;46.296;7.524;2022-07-11T03:09:04;2.00;;;1.63;;
21181;SDS011;10749;46.296;7.524;2022-07-11T03:11:30;3.33;;;1.88;;
21181;SDS011;10749;46.296;7.524;2022-07-11T03:13:55;3.95;;;1.80;;
21181;SDS011;10749;46.296;7.524;2022-07-11T03:16:21;4.45;;;2.03;;
21181;SDS011;10749;46.296;7.524;2022-07-11T03:18:46;2.53;;;1.98;;
21181;SDS011;10749;46.296;7.524;2022-07-11T03:21:11;3.17;;;1.33;;
21181;SDS011;10749;46.296;7.524;2022-07-11T03:23:36;4.05;;;1.92;;
21181;SDS011;10749;46.296;7.524;2022-07-11T03:26:02;5.30;;;1.98;;
21181;SDS011;10749;46.296;7.524;2022-07-11T03:28:28;2.88;;;1.75;;
21181;SDS011;10749;46.296;7.524;2022-07-11T03:30:53;5.30;;;2.13;;
21181;SDS011;10749;46.296;7.524;2022-07-11T03:33:18;3.65;;;2.10;;
21181;SDS011;10749;46.296;7.524;2022-07-11T03:35:44;2.78;;;1.85;;
21181;SDS011;10749;46.296;7.524;2022-07-11T03:38:09;1.92;;;1.65;;
21181;SDS011;10749;46.296;7.524;2022-07-11T03:40:36;2.22;;;1.73;;
21181;SDS011;10749;46.296;7.524;2022-07-11T03:43:01;3.85;;;1.70;;
21181;SDS011;10749;46.296;7.524;2022-07-11T03:45:27;4.18;;;1.90;;
21181;SDS011;10749;46.296;7.524;2022-07-11T03:47:52;4.03;;;2.30;;
21181;SDS011;10749;46.296;7.524;2022-07-11T03:50:18;4.00;;;2.10;;
21181;SDS011;10749;46.296;7.524;2022-07-11T03:52:43;5.00;;;2.00;;
21181;SDS011;10749;46.296;7.524;2022-07-11T03:55:09;4.53;;;2.13;;
21181;SDS011;10749;46.296;7.524;2022-07-11T03:57:34;3.92;;;2.58;;
21181;SDS011;10749;46.296;7.524;2022-07-11T04:00:00;2.95;;;1.80;;
21181;SDS011;10749;46.296;7.524;2022-07-11T04:02:29;3.33;;;2.03;;
21181;SDS011;10749;46.296;7.524;2022-07-11T04:04:54;4.07;;;1.77;;
21181;SDS011;10749;46.296;7.524;2022-07-11T04:07:19;2.65;;;1.80;;
21181;SDS011;10749;46.296;7.524;2022-07-11T04:09:45;3.20;;;2.05;;
21181;SDS011;10749;46.296;7.524;2022-07-11T04:12:10;2.65;;;1.98;;
21181;SDS011;10749;46.296;7.524;2022-07-11T04:14:36;3.20;;;1.90;;
21181;SDS011;10749;46.296;7.524;2022-07-11T04:17:01;4.13;;;1.85;;
21181;SDS011;10749;46.296;7.524;2022-07-11T04:19:27;2.67;;;1.90;;
21181;SDS011;10749;46.296;7.524;2022-07-11T04:21:52;2.72;;;1.98;;
21181;SDS011;10749;46.296;7.524;2022-07-11T04:24:17;2.63;;;2.17;;
21181;SDS011;10749;46.296;7.524;2022-07-11T04:26:43;4.07;;;1.92;;
21181;SDS011;10749;46.296;7.524;2022-07-11T04:29:08;4.82;;;2.22;;
21181;SDS011;10749;46.296;7.524;2022-07-11T04:31:33;3.40;;;2.25;;
21181;SDS011;10749;46.296;7.524;2022-07-11T04:33:59;4.65;;;2.00;;
21181;SDS011;10749;46.296;7.524;2022-07-11T04:36:24;2.42;;;1.90;;
21181;SDS011;10749;46.296;7.524;2022-07-11T04:38:49;3.38;;;2.05;;
21181;SDS011;10749;46.296;7.524;2022-07-11T04:41:15;3.13;;;1.90;;
21181;SDS011;10749;46.296;7.524;2022-07-11T04:43:40;2.55;;;1.88;;
21181;SDS011;10749;46.296;7.524;2022-07-11T04:46:05;3.03;;;2.10;;
21181;SDS011;10749;46.296;7.524;2022-07-11T04:48:31;3.95;;;2.00;;
21181;SDS011;10749;46.296;7.524;2022-07-11T04:50:56;4.68;;;1.90;;
21181;SDS011;10749;46.296;7.524;2022-07-11T04:53:22;4.03;;;2.17;;
21181;SDS011;10749;46.296;7.524;2022-07-11T04:55:48;3.47;;;1.80;;
21181;SDS011;10749;46.296;7.524;2022-07-11T04:58:13;2.28;;;2.05;;
21181;SDS011;10749;46.296;7.524;2022-07-11T05:00:39;2.50;;;1.83;;
21181;SDS011;10749;46.296;7.524;2022-07-11T05:03:04;3.88;;;2.08;;
21181;SDS011;10749;46.296;7.524;2022-07-11T05:05:30;3.50;;;1.75;;
21181;SDS011;10749;46.296;7.524;2022-07-11T05:07:55;2.38;;;2.10;;
21181;SDS011;10749;46.296;7.524;2022-07-11T05:10:21;2.60;;;1.90;;
21181;SDS011;10749;46.296;7.524;2022-07-11T05:12:46;3.67;;;2.13;;
21181;SDS011;10749;46.296;7.524;2022-07-11T05:15:12;4.57;;;1.90;;
21181;SDS011;10749;46.296;7.524;2022-07-11T05:17:37;3.33;;;2.05;;
21181;SDS011;10749;46.296;7.524;2022-07-11T05:20:03;4.45;;;1.88;;
21181;SDS011;10749;46.296;7.524;2022-07-11T05:22:29;7.38;;;2.10;;
21181;SDS011;10749;46.296;7.524;2022-07-11T05:24:54;3.42;;;1.88;;
21181;SDS011;10749;46.296;7.524;2022-07-11T05:27:19;3.63;;;2.03;;
21181;SDS011;10749;46.296;7.524;2022-07-11T05:29:45;4.57;;;2.22;;
21181;SDS011;10749;46.296;7.524;2022-07-11T05:32:10;5.55;;;2.17;;
21181;SDS011;10749;46.296;7.524;2022-07-11T05:34:36;5.40;;;2.25;;
21181;SDS011;10749;46.296;7.524;2022-07-11T05:37:02;6.47;;;2.13;;
21181;SDS011;10749;46.296;7.524;2022-07-11T05:39:27;3.95;;;2.03;;
21181;SDS011;10749;46.296;7.524;2022-07-11T05:41:53;5.10;;;2.15;;
21181;SDS011;10749;46.296;7.524;2022-07-11T05:44:18;2.58;;;2.03;;
21181;SDS011;10749;46.296;7.524;2022-07-11T05:46:44;4.22;;;2.10;;
21181;SDS011;10749;46.296;7.524;2022-07-11T05:49:10;7.60;;;2.20;;
21181;SDS011;10749;46.296;7.524;2022-07-11T05:51:35;5.18;;;2.20;;
21181;SDS011;10749;46.296;7.524;2022-07-11T05:54:03;4.95;;;2.08;;
21181;SDS011;10749;46.296;7.524;2022-07-11T05:56:29;4.82;;;2.10;;
21181;SDS011;10749;46.296;7.524;2022-07-11T05:58:55;4.43;;;2.38;;
21181;SDS011;10749;46.296;7.524;2022-07-11T06:01:21;3.80;;;2.10;;
21181;SDS011;10749;46.296;7.524;2022-07-11T06:03:47;2.67;;;1.88;;
21181;SDS011;10749;46.296;7.524;2022-07-11T06:06:13;4.13;;;1.88;;
21181;SDS011;10749;46.296;7.524;2022-07-11T06:08:38;2.80;;;1.90;;
21181;SDS011;10749;46.296;7.524;2022-07-11T06:11:07;6.10;;;1.90;;
21181;SDS011;10749;46.296;7.524;2022-07-11T06:13:36;2.40;;;1.70;;
21181;SDS011;10749;46.296;7.524;2022-07-11T06:16:04;2.20;;;2.00;;
21181;SDS011;10749;46.296;7.524;2022-07-11T06:18:31;2.80;;;2.00;;
21181;SDS011;10749;46.296;7.524;2022-07-11T06:20:56;2.92;;;2.00;;
21181;SDS011;10749;46.296;7.524;2022-07-11T06:23:22;2.50;;;1.60;;
21181;SDS011;10749;46.296;7.524;2022-07-11T06:25:47;4.32;;;2.03;;
21181;SDS011;10749;46.296;7.524;2022-07-11T06:28:13;2.85;;;2.10;;
21181;SDS011;10749;46.296;7.524;2022-07-11T06:30:38;2.92;;;2.28;;
21181;SDS011;10749;46.296;7.524;2022-07-11T06:33:03;3.20;;;1.80;;
21181;SDS011;10749;46.296;7.524;2022-07-11T06:35:29;2.78;;;2.00;;
21181;SDS011;10749;46.296;7.524;2022-07-11T06:37:55;3.20;;;1.90;;
21181;SDS011;10749;46.296;7.524;2022-07-11T06:40:21;4.30;;;2.38;;
21181;SDS011;10749;46.296;7.524;2022-07-11T06:42:48;4.57;;;2.05;;
21181;SDS011;10749;46.296;7.524;2022-07-11T06:45:14;2.30;;;2.10;;
21181;SDS011;10749;46.296;7.524;2022-07-11T06:47:39;5.15;;;2.10;;
21181;SDS011;10749;46.296;7.524;2022-07-11T06:50:05;3.75;;;2.10;;
21181;SDS011;10749;46.296;7.524;2022-07-11T06:52:31;4.65;;;2.40;;
21181;SDS011;10749;46.296;7.524;2022-07-11T06:54:56;4.18;;;1.85;;
21181;SDS011;10749;46.296;7.524;2022-07-11T06:57:23;3.20;;;1.98;;
21181;SDS011;10749;46.296;7.524;2022-07-11T06:59:48;3.28;;;2.10;;
21181;SDS011;10749;46.296;7.524;2022-07-11T07:02:14;3.97;;;2.30;;
21181;SDS011;10749;46.296;7.524;2022-07-11T07:04:39;6.85;;;3.00;;
21181;SDS011;10749;46.296;7.524;2022-07-11T07:07:04;5.43;;;2.60;;
21181;SDS011;10749;46.296;7.524;2022-07-11T07:09:30;3.00;;;2.63;;
21181;SDS011;10749;46.296;7.524;2022-07-11T07:11:55;3.55;;;2.50;;
21181;SDS011;10749;46.296;7.524;2022-07-11T07:14:21;4.68;;;2.20;;
21181;SDS011;10749;46.296;7.524;2022-07-11T07:16:46;7.15;;;2.60;;
21181;SDS011;10749;46.296;7.524;2022-07-11T07:19:12;3.78;;;2.38;;
21181;SDS011;10749;46.296;7.524;2022-07-11T07:21:38;4.28;;;2.28;;
21181;SDS011;10749;46.296;7.524;2022-07-11T07:24:03;4.60;;;2.78;;
21181;SDS011;10749;46.296;7.524;2022-07-11T07:26:29;4.63;;;2.58;;
21181;SDS011;10749;46.296;7.524;2022-07-11T07:28:54;8.82;;;2.17;;
21181;SDS011;10749;46.296;7.524;2022-07-11T07:31:19;5.43;;;2.10;;
21181;SDS011;10749;46.296;7.524;2022-07-11T07:33:45;2.35;;;2.15;;
21181;SDS011;10749;46.296;7.524;2022-07-11T07:36:10;3.35;;;1.90;;
21181;SDS011;10749;46.296;7.524;2022-07-11T07:38:35;2.50;;;2.13;;
21181;SDS011;10749;46.296;7.524;2022-07-11T07:41:01;5.05;;;2.15;;
21181;SDS011;10749;46.296;7.524;2022-07-11T07:43:26;3.08;;;1.95;;
21181;SDS011;10749;46.296;7.524;2022-07-11T07:45:51;5.13;;;2.22;;
21181;SDS011;10749;46.296;7.524;2022-07-11T07:48:17;4.60;;;2.15;;
21181;SDS011;10749;46.296;7.524;2022-07-11T07:50:42;5.57;;;2.20;;
21181;SDS011;10749;46.296;7.524;2022-07-11T07:53:08;4.30;;;2.30;;
21181;SDS011;10749;46.296;7.524;2022-07-11T07:55:34;10.23;;;2.30;;
21181;SDS011;10749;46.296;7.524;2022-07-11T07:58:00;2.67;;;2.03;;
21181;SDS011;10749;46.296;7.524;2022-07-11T08:00:25;4.43;;;2.17;;
21181;SDS011;10749;46.296;7.524;2022-07-11T08:03:09;2.20;;;1.83;;
21181;SDS011;10749;46.296;7.524;2022-07-11T08:05:35;4.03;;;2.00;;
21181;SDS011;10749;46.296;7.524;2022-07-11T08:08:01;4.47;;;2.13;;
21181;SDS011;10749;46.296;7.524;2022-07-11T08:10:28;5.07;;;2.28;;
21181;SDS011;10749;46.296;7.524;2022-07-11T08:12:54;2.95;;;1.90;;
21181;SDS011;10749;46.296;7.524;2022-07-11T08:15:19;3.45;;;1.95;;
21181;SDS011;10749;46.296;7.524;2022-07-11T08:17:45;3.67;;;2.15;;
21181;SDS011;10749;46.296;7.524;2022-07-11T08:20:10;5.65;;;1.88;;
21181;SDS011;10749;46.296;7.524;2022-07-11T08:22:35;3.42;;;1.80;;
21181;SDS011;10749;46.296;7.524;2022-07-11T08:25:01;6.43;;;2.08;;
21181;SDS011;10749;46.296;7.524;2022-07-11T08:27:26;1.83;;;1.50;;
21181;SDS011;10749;46.296;7.524;2022-07-11T08:29:51;2.22;;;1.88;;
21181;SDS011;10749;46.296;7.524;2022-07-11T08:32:17;6.88;;;2.08;;
21181;SDS011;10749;46.296;7.524;2022-07-11T08:34:42;4.65;;;1.70;;
21181;SDS011;10749;46.296;7.524;2022-07-11T08:37:09;4.25;;;2.10;;
21181;SDS011;10749;46.296;7.524;2022-07-11T08:39:34;3.22;;;1.83;;
21181;SDS011;10749;46.296;7.524;2022-07-11T08:42:00;2.58;;;1.52;;
21181;SDS011;10749;46.296;7.524;2022-07-11T08:44:25;2.53;;;1.90;;
21181;SDS011;10749;46.296;7.524;2022-07-11T08:46:51;3.40;;;2.00;;
21181;SDS011;10749;46.296;7.524;2022-07-11T08:49:18;2.25;;;1.58;;
21181;SDS011;10749;46.296;7.524;2022-07-11T08:51:43;2.58;;;1.58;;
21181;SDS011;10749;46.296;7.524;2022-07-11T08:54:10;5.75;;;2.10;;
21181;SDS011;10749;46.296;7.524;2022-07-11T08:56:36;3.00;;;1.88;;
21181;SDS011;10749;46.296;7.524;2022-07-11T08:59:02;3.58;;;2.20;;
21181;SDS011;10749;46.296;7.524;2022-07-11T09:01:29;8.60;;;2.55;;
21181;SDS011;10749;46.296;7.524;2022-07-11T09:03:57;6.05;;;1.80;;
21181;SDS011;10749;46.296;7.524;2022-07-11T09:06:23;2.10;;;1.90;;
21181;SDS011;10749;46.296;7.524;2022-07-11T09:08:48;4.25;;;2.00;;
21181;SDS011;10749;46.296;7.524;2022-07-11T09:11:13;6.82;;;2.67;;
21181;SDS011;10749;46.296;7.524;2022-07-11T09:13:39;4.65;;;1.98;;
21181;SDS011;10749;46.296;7.524;2022-07-11T09:16:07;3.65;;;2.03;;
21181;SDS011;10749;46.296;7.524;2022-07-11T09:18:38;5.25;;;2.17;;
21181;SDS011;10749;46.296;7.524;2022-07-11T09:23:53;12.82;;;3.58;;
21181;SDS011;10749;46.296;7.524;2022-07-11T09:26:40;6.10;;;2.10;;
21181;SDS011;10749;46.296;7.524;2022-07-11T09:29:14;3.63;;;1.88;;
21181;SDS011;10749;46.296;7.524;2022-07-11T09:31:41;3.60;;;2.00;;
21181;SDS011;10749;46.296;7.524;2022-07-11T09:34:10;2.58;;;1.58;;
21181;SDS011;10749;46.296;7.524;2022-07-11T09:39:07;3.90;;;1.70;;
21181;SDS011;10749;46.296;7.524;2022-07-11T09:41:35;3.45;;;2.08;;
21181;SDS011;10749;46.296;7.524;2022-07-11T09:44:12;3.92;;;1.85;;
21181;SDS011;10749;46.296;7.524;2022-07-11T09:46:46;3.55;;;1.92;;
21181;SDS011;10749;46.296;7.524;2022-07-11T09:49:14;2.80;;;1.83;;
21181;SDS011;10749;46.296;7.524;2022-07-11T09:51:40;3.30;;;1.92;;
21181;SDS011;10749;46.296;7.524;2022-07-11T09:54:07;3.08;;;1.75;;
21181;SDS011;10749;46.296;7.524;2022-07-11T09:59:01;3.05;;;2.08;;
21181;SDS011;10749;46.296;7.524;2022-07-11T10:01:28;2.90;;;1.75;;
21181;SDS011;10749;46.296;7.524;2022-07-11T10:03:55;2.20;;;1.95;;
21181;SDS011;10749;46.296;7.524;2022-07-11T10:06:20;3.95;;;1.80;;
21181;SDS011;10749;46.296;7.524;2022-07-11T10:08:47;2.70;;;2.20;;
21181;SDS011;10749;46.296;7.524;2022-07-11T10:11:13;4.50;;;2.55;;
21181;SDS011;10749;46.296;7.524;2022-07-11T10:13:39;3.13;;;2.10;;
21181;SDS011;10749;46.296;7.524;2022-07-11T10:16:08;2.75;;;1.63;;
21181;SDS011;10749;46.296;7.524;2022-07-11T10:22:02;3.70;;;1.70;;
21181;SDS011;10749;46.296;7.524;2022-07-11T10:24:43;6.50;;;1.92;;
21181;SDS011;10749;46.296;7.524;2022-07-11T10:27:33;3.28;;;1.90;;
21181;SDS011;10749;46.296;7.524;2022-07-11T10:30:04;2.08;;;1.70;;
21181;SDS011;10749;46.296;7.524;2022-07-11T10:32:30;3.35;;;2.05;;
21181;SDS011;10749;46.296;7.524;2022-07-11T10:35:06;3.50;;;1.75;;
21181;SDS011;10749;46.296;7.524;2022-07-11T10:37:50;4.57;;;1.95;;
21181;SDS011;10749;46.296;7.524;2022-07-11T10:40:39;2.95;;;2.10;;
21181;SDS011;10749;46.296;7.524;2022-07-11T10:43:12;6.00;;;2.00;;
21181;SDS011;10749;46.296;7.524;2022-07-11T10:46:06;4.78;;;1.80;;
21181;SDS011;10749;46.296;7.524;2022-07-11T10:49:01;5.10;;;2.00;;
21181;SDS011;10749;46.296;7.524;2022-07-11T11:00:00;3.85;;;1.83;;
21181;SDS011;10749;46.296;7.524;2022-07-11T11:02:30;5.38;;;2.00;;
21181;SDS011;10749;46.296;7.524;2022-07-11T11:04:59;2.55;;;1.90;;
21181;SDS011;10749;46.296;7.524;2022-07-11T11:07:36;2.83;;;1.90;;
21181;SDS011;10749;46.296;7.524;2022-07-11T11:15:38;2.33;;;1.90;;
21181;SDS011;10749;46.296;7.524;2022-07-11T11:23:32;9.35;;;2.10;;
21181;SDS011;10749;46.296;7.524;2022-07-11T11:26:05;8.57;;;2.20;;
21181;SDS011;10749;46.296;7.524;2022-07-11T11:28:34;3.22;;;1.85;;
21181;SDS011;10749;46.296;7.524;2022-07-11T11:31:01;3.42;;;1.77;;
21181;SDS011;10749;46.296;7.524;2022-07-11T11:33:29;4.32;;;1.90;;
21181;SDS011;10749;46.296;7.524;2022-07-11T11:38:25;3.85;;;1.52;;
21181;SDS011;10749;46.296;7.524;2022-07-11T11:40:51;2.08;;;1.88;;
21181;SDS011;10749;46.296;7.524;2022-07-11T11:43:20;2.78;;;1.77;;
21181;SDS011;10749;46.296;7.524;2022-07-11T11:45:49;4.03;;;1.88;;
21181;SDS011;10749;46.296;7.524;2022-07-11T11:51:03;4.95;;;1.90;;
21181;SDS011;10749;46.296;7.524;2022-07-11T11:53:38;2.53;;;1.92;;
21181;SDS011;10749;46.296;7.524;2022-07-11T11:56:16;2.38;;;1.88;;
21181;SDS011;10749;46.296;7.524;2022-07-11T11:58:59;4.75;;;1.75;;
21181;SDS011;10749;46.296;7.524;2022-07-11T12:01:27;5.55;;;1.63;;
21181;SDS011;10749;46.296;7.524;2022-07-11T12:03:55;3.58;;;1.65;;
21181;SDS011;10749;46.296;7.524;2022-07-11T12:06:25;5.47;;;1.60;;
21181;SDS011;10749;46.296;7.524;2022-07-11T12:08:59;5.53;;;1.80;;
21181;SDS011;10749;46.296;7.524;2022-07-11T12:11:29;7.85;;;2.22;;
21181;SDS011;10749;46.296;7.524;2022-07-11T12:13:56;6.45;;;1.90;;
21181;SDS011;10749;46.296;7.524;2022-07-11T12:16:25;3.03;;;1.60;;
21181;SDS011;10749;46.296;7.524;2022-07-11T12:19:19;2.92;;;1.42;;
21181;SDS011;10749;46.296;7.524;2022-07-11T12:21:51;3.67;;;1.70;;
21181;SDS011;10749;46.296;7.524;2022-07-11T12:24:27;3.67;;;1.80;;
21181;SDS011;10749;46.296;7.524;2022-07-11T12:26:52;5.22;;;1.67;;
21181;SDS011;10749;46.296;7.524;2022-07-11T12:29:19;4.60;;;1.65;;
21181;SDS011;10749;46.296;7.524;2022-07-11T12:31:50;2.35;;;1.60;;
21181;SDS011;10749;46.296;7.524;2022-07-11T12:34:16;3.67;;;1.88;;
21181;SDS011;10749;46.296;7.524;2022-07-11T12:36:48;3.17;;;1.50;;
21181;SDS011;10749;46.296;7.524;2022-07-11T12:39:24;4.30;;;1.40;;
21181;SDS011;10749;46.296;7.524;2022-07-11T12:41:51;3.53;;;1.60;;
21181;SDS011;10749;46.296;7.524;2022-07-11T12:44:27;3.17;;;1.60;;
21181;SDS011;10749;46.296;7.524;2022-07-11T12:47:12;2.47;;;1.58;;
21181;SDS011;10749;46.296;7.524;2022-07-11T12:49:39;4.57;;;1.63;;
21181;SDS011;10749;46.296;7.524;2022-07-11T12:52:09;3.85;;;1.58;;
21181;SDS011;10749;46.296;7.524;2022-07-11T12:54:37;2.30;;;1.48;;
21181;SDS011;10749;46.296;7.524;2022-07-11T12:57:04;5.28;;;1.50;;
21181;SDS011;10749;46.296;7.524;2022-07-11T12:59:32;3.05;;;1.50;;
21181;SDS011;10749;46.296;7.524;2022-07-11T13:04:47;5.65;;;1.20;;
21181;SDS011;10749;46.296;7.524;2022-07-11T13:10:13;5.40;;;1.50;;
21181;SDS011;10749;46.296;7.524;2022-07-11T13:12:42;2.60;;;1.38;;
21181;SDS011;10749;46.296;7.524;2022-07-11T13:15:08;2.53;;;1.30;;
21181;SDS011;10749;46.296;7.524;2022-07-11T13:17:45;6.00;;;1.42;;
21181;SDS011;10749;46.296;7.524;2022-07-11T13:20:12;2.38;;;1.50;;
21181;SDS011;10749;46.296;7.524;2022-07-11T13:22:40;2.53;;;1.40;;
21181;SDS011;10749;46.296;7.524;2022-07-11T13:25:09;3.67;;;1.45;;
21181;SDS011;10749;46.296;7.524;2022-07-11T13:27:37;3.78;;;1.40;;
21181;SDS011;10749;46.296;7.524;2022-07-11T13:30:03;5.35;;;1.52;;
21181;SDS011;10749;46.296;7.524;2022-07-11T13:32:36;6.65;;;1.40;;
21181;SDS011;10749;46.296;7.524;2022-07-11T13:35:04;5.47;;;1.48;;
21181;SDS011;10749;46.296;7.524;2022-07-11T13:37:31;4.50;;;1.13;;
21181;SDS011;10749;46.296;7.524;2022-07-11T13:39:56;2.28;;;1.38;;
21181;SDS011;10749;46.296;7.524;2022-07-11T13:42:22;4.32;;;1.40;;
21181;SDS011;10749;46.296;7.524;2022-07-11T13:44:47;5.75;;;1.73;;
21181;SDS011;10749;46.296;7.524;2022-07-11T13:47:13;2.70;;;1.50;;
21181;SDS011;10749;46.296;7.524;2022-07-11T13:49:38;3.95;;;1.40;;
21181;SDS011;10749;46.296;7.524;2022-07-11T13:52:04;4.70;;;1.70;;
21181;SDS011;10749;46.296;7.524;2022-07-11T13:54:30;3.42;;;1.40;;
21181;SDS011;10749;46.296;7.524;2022-07-11T13:56:55;5.90;;;1.30;;
21181;SDS011;10749;46.296;7.524;2022-07-11T13:59:20;2.92;;;1.50;;
21181;SDS011;10749;46.296;7.524;2022-07-11T14:01:46;2.88;;;1.42;;
21181;SDS011;10749;46.296;7.524;2022-07-11T14:04:11;3.88;;;1.60;;
21181;SDS011;10749;46.296;7.524;2022-07-11T14:06:37;3.70;;;1.30;;
21181;SDS011;10749;46.296;7.524;2022-07-11T14:09:02;5.57;;;1.40;;
21181;SDS011;10749;46.296;7.524;2022-07-11T14:11:28;2.45;;;1.40;;
21181;SDS011;10749;46.296;7.524;2022-07-11T14:13:54;5.05;;;1.30;;
21181;SDS011;10749;46.296;7.524;2022-07-11T14:16:19;5.40;;;1.50;;
21181;SDS011;10749;46.296;7.524;2022-07-11T14:18:46;8.38;;;1.50;;
21181;SDS011;10749;46.296;7.524;2022-07-11T14:21:12;2.33;;;1.33;;
21181;SDS011;10749;46.296;7.524;2022-07-11T14:23:37;4.25;;;1.40;;
21181;SDS011;10749;46.296;7.524;2022-07-11T14:26:02;4.07;;;1.63;;
21181;SDS011;10749;46.296;7.524;2022-07-11T14:28:31;7.95;;;1.52;;
21181;SDS011;10749;46.296;7.524;2022-07-11T14:30:57;3.15;;;1.30;;
21181;SDS011;10749;46.296;7.524;2022-07-11T14:33:23;3.80;;;1.23;;
21181;SDS011;10749;46.296;7.524;2022-07-11T14:35:48;4.22;;;1.30;;
21181;SDS011;10749;46.296;7.524;2022-07-11T14:38:14;4.22;;;1.40;;
21181;SDS011;10749;46.296;7.524;2022-07-11T14:40:39;6.10;;;1.33;;
21181;SDS011;10749;46.296;7.524;2022-07-11T14:43:05;3.60;;;1.40;;
21181;SDS011;10749;46.296;7.524;2022-07-11T14:45:31;4.70;;;1.70;;
21181;SDS011;10749;46.296;7.524;2022-07-11T14:47:56;3.85;;;1.60;;
21181;SDS011;10749;46.296;7.524;2022-07-11T14:50:21;2.10;;;1.23;;
21181;SDS011;10749;46.296;7.524;2022-07-11T14:52:46;7.93;;;1.50;;
21181;SDS011;10749;46.296;7.524;2022-07-11T14:55:13;5.38;;;1.33;;
21181;SDS011;10749;46.296;7.524;2022-07-11T14:57:38;9.98;;;1.30;;
21181;SDS011;10749;46.296;7.524;2022-07-11T15:00:04;4.47;;;1.30;;
21181;SDS011;10749;46.296;7.524;2022-07-11T15:02:30;6.15;;;1.25;;
21181;SDS011;10749;46.296;7.524;2022-07-11T15:05:14;4.53;;;1.30;;
21181;SDS011;10749;46.296;7.524;2022-07-11T15:07:39;2.70;;;1.20;;
21181;SDS011;10749;46.296;7.524;2022-07-11T15:10:23;3.83;;;1.52;;
21181;SDS011;10749;46.296;7.524;2022-07-11T15:13:07;3.55;;;1.38;;
21181;SDS011;10749;46.296;7.524;2022-07-11T15:15:32;4.50;;;1.27;;
21181;SDS011;10749;46.296;7.524;2022-07-11T15:17:57;6.55;;;1.63;;
21181;SDS011;10749;46.296;7.524;2022-07-11T15:20:23;6.28;;;1.50;;
21181;SDS011;10749;46.296;7.524;2022-07-11T15:22:48;4.55;;;1.30;;
21181;SDS011;10749;46.296;7.524;2022-07-11T15:25:15;5.28;;;1.30;;
21181;SDS011;10749;46.296;7.524;2022-07-11T15:27:41;5.00;;;1.30;;
21181;SDS011;10749;46.296;7.524;2022-07-11T15:30:07;4.50;;;1.35;;